Minot Air Force Base Minot US
ICAO: KMIB
IATA: MIB
Category: Medium
Scheduled Services: No

Elevation: 1667 ft
TransAlt. 18000 ft.

Airport Communications:
APP:119.6
ATIS:27.88
CLNC DEL:32.62
DEP:119.6
GND:134
PMSV METRO:34.25
COMD POST:32.1
PTD:37.22
TWR:120.65

KMIB Zoom In..

If you have problems with the map follow the link
https://www.worldairports.se/pages/airport.php?
ICAO=KMIB

Runways:

(A) RW 11 length 13197 ft width 300 ft
ILS 109.90 / hdg 115

(B) RW 29 length 13197 ft width 300 ft
ILS 109.90 / hdg 295

Location; KMIB
Day. 19 / Time. 00.56 Zulu
* Altimeter: 29.80
* Temperature: 10° c. 50°f.
* Wind from: 260° Speed 07 kn.
Dewpoint: 01° c.
Visibility: 10 Statute Miles.
Clouds: Clear (automated report).

KMIB 190056Z AUTO 26007KT 10SM CLR 10/01 A2980 RMK AO2 SLP108 T01020008 $


Wind From 260°
Speed 07 kn.

 
 
jpsmedia.com for Web Design worldairports.se 2018   terms of use